createdAt,value
2019-05-20T00:00:33.881Z,0.00
2019-05-20T00:01:33.853Z,0.00
2019-05-20T00:02:33.901Z,0.00
2019-05-20T00:03:33.894Z,0.00
2019-05-20T00:04:33.933Z,0.00
2019-05-20T00:05:33.856Z,0.00
2019-05-20T00:06:33.793Z,0.00
2019-05-20T00:07:33.843Z,0.00
2019-05-20T00:08:33.794Z,0.00
2019-05-20T00:09:34.797Z,0.00
2019-05-20T00:10:33.755Z,0.00
2019-05-20T00:11:33.736Z,0.00
2019-05-20T00:12:33.726Z,0.00
2019-05-20T00:13:33.809Z,0.00
2019-05-20T00:14:33.708Z,0.00
2019-05-20T00:15:33.784Z,0.00
2019-05-20T00:16:33.697Z,0.00
2019-05-20T00:17:33.721Z,0.00
2019-05-20T00:18:33.689Z,0.00
2019-05-20T00:19:33.750Z,0.00
2019-05-20T00:20:33.661Z,0.00
2019-05-20T00:21:33.702Z,0.00
2019-05-20T00:22:33.626Z,0.00
2019-05-20T00:23:33.673Z,0.00
2019-05-20T00:24:33.593Z,0.00
2019-05-20T00:25:33.674Z,0.00
2019-05-20T00:26:33.573Z,0.00
2019-05-20T00:27:33.564Z,0.00
2019-05-20T00:28:33.585Z,0.00
2019-05-20T00:29:33.645Z,0.00
2019-05-20T00:30:33.527Z,0.00
2019-05-20T00:31:33.576Z,0.00
2019-05-20T00:32:40.957Z,0.00
2019-05-20T00:33:34.517Z,0.00
2019-05-20T00:34:35.590Z,0.00
2019-05-20T00:35:33.489Z,0.00
2019-05-20T00:36:33.511Z,0.00
2019-05-20T00:37:33.453Z,0.00
2019-05-20T00:38:33.471Z,0.00
2019-05-20T00:39:33.432Z,0.00
2019-05-20T00:40:33.481Z,0.00
2019-05-20T00:41:33.422Z,0.00
2019-05-20T00:42:33.426Z,0.00
2019-05-20T00:43:33.438Z,0.00
2019-05-20T00:44:33.377Z,0.00
2019-05-20T00:45:33.424Z,0.00
2019-05-20T00:46:33.379Z,0.00
2019-05-20T00:47:33.466Z,0.00
2019-05-20T00:48:33.346Z,0.00
2019-05-20T00:49:33.318Z,0.00
2019-05-20T00:50:33.377Z,0.00
2019-05-20T00:51:33.297Z,0.00
2019-05-20T00:52:33.409Z,0.00
2019-05-20T00:53:33.278Z,0.00
2019-05-20T00:54:33.284Z,0.00
2019-05-20T00:55:33.310Z,0.00
2019-05-20T00:56:33.231Z,0.00
2019-05-20T00:57:33.340Z,0.00
2019-05-20T00:58:33.211Z,0.00
2019-05-20T00:59:33.233Z,0.00
2019-05-20T01:00:33.204Z,0.00
2019-05-20T01:01:33.231Z,0.00
2019-05-20T01:02:33.174Z,0.00
2019-05-20T01:03:33.255Z,0.00
2019-05-20T01:04:33.165Z,0.00
2019-05-20T01:05:33.150Z,0.00
2019-05-20T01:06:33.156Z,0.00
2019-05-20T01:07:33.118Z,0.00
2019-05-20T01:08:33.187Z,0.00
2019-05-20T01:09:33.117Z,0.00
2019-05-20T01:10:33.088Z,0.00
2019-05-20T01:11:33.068Z,0.00
2019-05-20T01:12:33.169Z,0.00
2019-05-20T01:13:33.060Z,0.00
2019-05-20T01:14:33.153Z,0.00
2019-05-20T01:15:33.058Z,0.00
2019-05-20T01:16:33.111Z,0.00
2019-05-20T01:17:33.012Z,0.00
2019-05-20T01:18:33.073Z,0.00
2019-05-20T01:19:33.003Z,0.00
2019-05-20T01:20:33.013Z,0.00
2019-05-20T01:21:32.956Z,0.00
2019-05-20T01:22:33.047Z,0.00
2019-05-20T01:23:32.925Z,0.00
2019-05-20T01:24:33.036Z,0.00
2019-05-20T01:25:32.896Z,0.00
2019-05-20T01:26:32.897Z,0.00
2019-05-20T01:27:32.879Z,0.00
2019-05-20T01:28:32.968Z,0.00
2019-05-20T01:29:32.888Z,0.00
2019-05-20T01:30:32.889Z,0.00
2019-05-20T01:31:32.850Z,0.00
2019-05-20T01:32:32.841Z,0.00
2019-05-20T01:33:32.890Z,0.00
2019-05-20T01:34:32.841Z,0.00
2019-05-20T01:35:32.822Z,0.00
2019-05-20T01:36:32.810Z,0.00
2019-05-20T01:37:32.783Z,0.00
2019-05-20T01:38:32.774Z,0.00
2019-05-20T01:39:32.849Z,0.00
2019-05-20T01:40:32.734Z,0.00
2019-05-20T01:41:32.736Z,0.00
2019-05-20T01:42:32.726Z,0.00
2019-05-20T01:43:32.776Z,0.00
2019-05-20T01:44:32.717Z,0.00
2019-05-20T01:45:32.717Z,0.00
2019-05-20T01:46:32.658Z,0.00
2019-05-20T01:47:32.748Z,0.00
2019-05-20T01:48:32.662Z,0.00
2019-05-20T01:49:32.740Z,0.00
2019-05-20T01:50:32.619Z,0.00
2019-05-20T01:51:32.721Z,0.00
2019-05-20T01:52:32.622Z,0.00
2019-05-20T01:53:32.581Z,0.00
2019-05-20T01:54:32.622Z,0.00
2019-05-20T01:55:32.593Z,0.00
2019-05-20T01:56:32.576Z,0.00
2019-05-20T01:57:32.623Z,0.00
2019-05-20T01:58:32.537Z,0.00
2019-05-20T01:59:33.601Z,0.00
2019-05-20T02:00:32.541Z,0.00
2019-05-20T02:01:32.627Z,0.00
2019-05-20T02:02:32.486Z,0.00
2019-05-20T02:03:32.706Z,0.00
2019-05-20T02:04:32.468Z,0.00
2019-05-20T02:05:32.509Z,0.00
2019-05-20T02:06:32.459Z,0.00
2019-05-20T02:07:32.520Z,0.00
2019-05-20T02:08:32.430Z,0.00
2019-05-20T02:09:32.420Z,0.00
2019-05-20T02:10:32.422Z,0.00
2019-05-20T02:11:32.482Z,0.00
2019-05-20T02:12:32.382Z,0.00
2019-05-20T02:13:32.423Z,0.00
2019-05-20T02:14:32.364Z,0.00
2019-05-20T02:15:32.364Z,0.00
2019-05-20T02:16:32.425Z,0.00
2019-05-20T02:17:32.326Z,0.00
2019-05-20T02:18:32.359Z,0.00
2019-05-20T02:19:32.316Z,0.00
2019-05-20T02:20:32.367Z,0.00
2019-05-20T02:21:32.277Z,0.00
2019-05-20T02:22:32.329Z,0.00
2019-05-20T02:23:32.269Z,0.00
2019-05-20T02:24:32.270Z,0.00
2019-05-20T02:25:32.249Z,0.00
2019-05-20T02:26:32.303Z,0.00
2019-05-20T02:27:32.210Z,0.00
2019-05-20T02:28:32.237Z,0.00
2019-05-20T02:29:32.191Z,0.00
2019-05-20T02:30:32.223Z,0.00
2019-05-20T02:31:32.173Z,0.00
2019-05-20T02:32:32.214Z,0.00
2019-05-20T02:33:49.847Z,0.00
2019-05-20T02:34:33.145Z,0.00
2019-05-20T02:35:33.175Z,0.00
2019-05-20T02:36:33.207Z,0.00
2019-05-20T02:37:32.106Z,0.00
2019-05-20T02:38:32.128Z,0.00
2019-05-20T02:39:32.066Z,0.00
2019-05-20T02:40:32.198Z,0.00
2019-05-20T02:41:32.069Z,0.00
2019-05-20T02:42:32.089Z,0.00
2019-05-20T02:43:32.032Z,0.00
2019-05-20T02:44:32.134Z,0.00
2019-05-20T02:45:32.041Z,0.00
2019-05-20T02:46:32.063Z,0.00
2019-05-20T02:47:31.992Z,0.00
2019-05-20T02:48:32.022Z,0.00
2019-05-20T02:49:31.960Z,4.00
2019-05-20T02:50:33.004Z,4.00
2019-05-20T02:51:31.961Z,4.00
2019-05-20T02:52:31.943Z,8.00
2019-05-20T02:53:31.909Z,4.00
2019-05-20T02:54:32.005Z,8.00
2019-05-20T02:55:31.927Z,8.00
2019-05-20T02:56:31.938Z,8.00
2019-05-20T02:57:31.878Z,8.00
2019-05-20T02:58:31.992Z,12.00
2019-05-20T02:59:31.859Z,12.00
2019-05-20T03:00:31.964Z,16.00
2019-05-20T03:01:31.837Z,16.00
2019-05-20T03:02:31.850Z,20.00
2019-05-20T03:03:31.811Z,24.00
2019-05-20T03:04:31.890Z,24.00
2019-05-20T03:05:31.780Z,28.00
2019-05-20T03:06:31.884Z,32.00
2019-05-20T03:07:31.755Z,36.00
2019-05-20T03:08:31.752Z,40.00
2019-05-20T03:09:31.735Z,44.00
2019-05-20T03:10:32.818Z,56.00
2019-05-20T03:11:31.736Z,60.00
2019-05-20T03:12:31.735Z,64.00
2019-05-20T03:13:31.713Z,72.00
2019-05-20T03:14:31.767Z,80.00
2019-05-20T03:15:31.668Z,88.00
2019-05-20T03:16:32.840Z,100.00
2019-05-20T03:17:31.649Z,112.00
2019-05-20T03:18:32.660Z,128.00
2019-05-20T03:19:31.737Z,136.00
2019-05-20T03:20:31.680Z,152.00
2019-05-20T03:21:31.622Z,168.00
2019-05-20T03:22:31.645Z,176.00
2019-05-20T03:23:31.587Z,192.00
2019-05-20T03:24:31.575Z,208.00
2019-05-20T03:25:31.552Z,216.00
2019-05-20T03:26:32.664Z,232.00
2019-05-20T03:27:31.533Z,256.00
2019-05-20T03:28:31.634Z,276.00
2019-05-20T03:29:31.514Z,304.00
2019-05-20T03:30:31.496Z,320.00
2019-05-20T03:31:31.595Z,344.00
2019-05-20T03:32:31.478Z,368.00
2019-05-20T03:33:31.570Z,388.00
2019-05-20T03:34:58.073Z,420.00
2019-05-20T03:35:32.445Z,448.00
2019-05-20T03:36:31.510Z,484.00
2019-05-20T03:37:31.421Z,516.00
2019-05-20T03:38:31.510Z,544.00
2019-05-20T03:39:31.389Z,572.00
2019-05-20T03:40:31.391Z,600.00
2019-05-20T03:41:31.411Z,628.00
2019-05-20T03:42:31.471Z,672.00
2019-05-20T03:43:31.361Z,716.00
2019-05-20T03:44:31.412Z,772.00
2019-05-20T03:45:31.323Z,824.00
2019-05-20T03:46:31.358Z,876.00
2019-05-20T03:47:31.316Z,872.00
2019-05-20T03:48:31.385Z,904.00
2019-05-20T03:49:31.275Z,900.00
2019-05-20T03:50:31.315Z,932.00
2019-05-20T03:51:31.296Z,956.00
2019-05-20T03:52:31.371Z,984.00
2019-05-20T03:53:31.237Z,1036.00
2019-05-20T03:54:31.311Z,1068.00
2019-05-20T03:55:31.227Z,1108.00
2019-05-20T03:56:31.228Z,1132.00
2019-05-20T03:57:31.199Z,1172.00
2019-05-20T03:58:31.321Z,1208.00
2019-05-20T03:59:31.190Z,1260.00
2019-05-20T04:00:31.211Z,1332.00
2019-05-20T04:01:31.241Z,1380.00
2019-05-20T04:02:31.159Z,1424.00
2019-05-20T04:03:31.202Z,1460.00
2019-05-20T04:04:31.123Z,1484.00
2019-05-20T04:05:31.143Z,1536.00
2019-05-20T04:06:31.123Z,1612.00
2019-05-20T04:07:31.098Z,1708.00
2019-05-20T04:08:31.079Z,1828.00
2019-05-20T04:09:31.116Z,1932.00
2019-05-20T04:10:31.066Z,2052.00
2019-05-20T04:11:31.098Z,2172.00
2019-05-20T04:12:31.037Z,2308.00
2019-05-20T04:13:34.514Z,2440.00
2019-05-20T04:14:31.009Z,2548.00
2019-05-20T04:15:31.018Z,2668.00
2019-05-20T04:16:31.009Z,2772.00
2019-05-20T04:17:31.049Z,2848.00
2019-05-20T04:18:31.024Z,2932.00
2019-05-20T04:19:30.961Z,3024.00
2019-05-20T04:20:30.962Z,3060.00
2019-05-20T04:21:30.934Z,3024.00
2019-05-20T04:22:31.054Z,2956.00
2019-05-20T04:23:30.930Z,2928.00
2019-05-20T04:24:30.935Z,2936.00
2019-05-20T04:25:30.875Z,2920.00
2019-05-20T04:26:30.974Z,2948.00
2019-05-20T04:27:30.884Z,3012.00
2019-05-20T04:28:30.905Z,3108.00
2019-05-20T04:29:30.838Z,3120.00
2019-05-20T04:30:30.946Z,3092.00
2019-05-20T04:31:30.828Z,3064.00
2019-05-20T04:32:30.919Z,3036.00
2019-05-20T04:33:30.799Z,3036.00
2019-05-20T04:34:30.779Z,3108.00
2019-05-20T04:35:30.770Z,3252.00
2019-05-20T04:36:30.852Z,3448.00
2019-05-20T04:37:30.772Z,3684.00
2019-05-20T04:38:30.791Z,3896.00
2019-05-20T04:39:30.733Z,4056.00
2019-05-20T04:40:30.723Z,4132.00
2019-05-20T04:41:30.712Z,4184.00
2019-05-20T04:42:30.807Z,4248.00
2019-05-20T04:43:30.685Z,4312.00
2019-05-20T04:44:30.698Z,4404.00
2019-05-20T04:45:30.644Z,4452.00
2019-05-20T04:46:30.726Z,4528.00
2019-05-20T04:47:30.656Z,4648.00
2019-05-20T04:48:30.677Z,4700.00
2019-05-20T04:49:30.617Z,4668.00
2019-05-20T04:50:30.609Z,4624.00
2019-05-20T04:51:30.617Z,4632.00
2019-05-20T04:52:30.679Z,4616.00
2019-05-20T04:53:30.570Z,4600.00
2019-05-20T04:54:30.590Z,4580.00
2019-05-20T04:55:30.560Z,4696.00
2019-05-20T04:56:30.557Z,4860.00
2019-05-20T04:57:30.623Z,5000.00
2019-05-20T04:58:30.523Z,5200.00
2019-05-20T04:59:30.623Z,5416.00
2019-05-20T05:00:30.492Z,5584.00
2019-05-20T05:01:30.494Z,5808.00
2019-05-20T05:02:30.502Z,6168.00
2019-05-20T05:03:30.584Z,6644.00
2019-05-20T05:04:30.449Z,7072.00
2019-05-20T05:05:37.717Z,7276.00
2019-05-20T05:06:31.517Z,7176.00
2019-05-20T05:07:30.426Z,6916.00
2019-05-20T05:08:31.448Z,6632.00
2019-05-20T05:09:30.387Z,6332.00
2019-05-20T05:10:30.459Z,6188.00
2019-05-20T05:11:30.370Z,6260.00
2019-05-20T05:12:30.449Z,6340.00
2019-05-20T05:13:30.359Z,6420.00
2019-05-20T05:14:30.440Z,6240.00
2019-05-20T05:15:30.320Z,6164.00
2019-05-20T05:16:30.382Z,6292.00
2019-05-20T05:17:30.325Z,6488.00
2019-05-20T05:18:30.310Z,6572.00
2019-05-20T05:19:30.273Z,6564.00
2019-05-20T05:20:30.353Z,6336.00
2019-05-20T05:21:30.255Z,6212.00
2019-05-20T05:22:30.265Z,6156.00
2019-05-20T05:23:30.245Z,6120.00
2019-05-20T05:24:30.315Z,6128.00
2019-05-20T05:25:30.196Z,6192.00
2019-05-20T05:26:30.261Z,6212.00
2019-05-20T05:27:30.221Z,6092.00
2019-05-20T05:28:30.292Z,6008.00
2019-05-20T05:29:30.170Z,5868.00
2019-05-20T05:30:30.229Z,5752.00
2019-05-20T05:31:30.149Z,5732.00
2019-05-20T05:32:30.201Z,5828.00
2019-05-20T05:33:30.120Z,6012.00
2019-05-20T05:34:30.201Z,6196.00
2019-05-20T05:35:30.093Z,6264.00
2019-05-20T05:36:30.131Z,6184.00
2019-05-20T05:37:30.096Z,6120.00
2019-05-20T05:38:30.083Z,5876.00
2019-05-20T05:39:30.053Z,5540.00
2019-05-20T05:40:30.115Z,5184.00
2019-05-20T05:41:30.045Z,4848.00
2019-05-20T05:42:30.035Z,4648.00
2019-05-20T05:43:30.066Z,4596.00
2019-05-20T05:44:29.997Z,4680.00
2019-05-20T05:45:30.107Z,4748.00
2019-05-20T05:46:29.996Z,4804.00
2019-05-20T05:47:29.989Z,4772.00
2019-05-20T05:48:29.982Z,4788.00
2019-05-20T05:49:31.965Z,4780.00
2019-05-20T05:50:29.923Z,4676.00
2019-05-20T05:51:32.012Z,4520.00
2019-05-20T05:52:29.910Z,4404.00
2019-05-20T05:53:29.932Z,4340.00
2019-05-20T05:54:29.892Z,4328.00
2019-05-20T05:55:29.932Z,4380.00
2019-05-20T05:56:29.864Z,4548.00
2019-05-20T05:57:29.963Z,4824.00
2019-05-20T05:58:29.857Z,5112.00
2019-05-20T05:59:29.845Z,5216.00
2019-05-20T06:00:29.825Z,5232.00
2019-05-20T06:01:29.836Z,5476.00
2019-05-20T06:02:29.814Z,6028.00
2019-05-20T06:03:29.929Z,6692.00
2019-05-20T06:04:29.857Z,7336.00
2019-05-20T06:05:31.721Z,7792.00
2019-05-20T06:06:29.789Z,8196.00
2019-05-20T06:07:29.729Z,8376.00
2019-05-20T06:08:29.869Z,8420.00
2019-05-20T06:09:29.730Z,8320.00
2019-05-20T06:10:30.774Z,8108.00
2019-05-20T06:11:29.711Z,8004.00
2019-05-20T06:12:29.775Z,8036.00
2019-05-20T06:13:29.703Z,8280.00
2019-05-20T06:14:29.726Z,8908.00
2019-05-20T06:15:29.643Z,9928.00
2019-05-20T06:16:36.625Z,11084.00
2019-05-20T06:17:30.643Z,12040.00
2019-05-20T06:18:29.746Z,12716.00
2019-05-20T06:19:29.616Z,13624.00
2019-05-20T06:20:29.606Z,12040.00
2019-05-20T06:21:29.747Z,11408.00
2019-05-20T06:22:29.567Z,10968.00
2019-05-20T06:23:29.682Z,10688.00
2019-05-20T06:24:29.548Z,10592.00
2019-05-20T06:25:29.549Z,10740.00
2019-05-20T06:26:29.658Z,11148.00
2019-05-20T06:27:29.531Z,10588.00
2019-05-20T06:28:30.541Z,11092.00
2019-05-20T06:29:29.491Z,12340.00
2019-05-20T06:30:29.492Z,13724.00
2019-05-20T06:31:29.541Z,15448.00
2019-05-20T06:32:29.554Z,16160.00
2019-05-20T06:33:29.453Z,14828.00
2019-05-20T06:34:29.548Z,13256.00
2019-05-20T06:35:30.475Z,11684.00
2019-05-20T06:36:29.415Z,10064.00
2019-05-20T06:37:30.529Z,8432.00
2019-05-20T06:38:29.416Z,7412.00
2019-05-20T06:39:29.457Z,7060.00
2019-05-20T06:40:29.373Z,6904.00
2019-05-20T06:41:29.478Z,6776.00
2019-05-20T06:42:29.348Z,6624.00
2019-05-20T06:43:30.430Z,6544.00
2019-05-20T06:44:29.350Z,6528.00
2019-05-20T06:45:29.329Z,6532.00
2019-05-20T06:46:29.303Z,6560.00
2019-05-20T06:47:29.381Z,6632.00
2019-05-20T06:48:29.292Z,6760.00
2019-05-20T06:49:29.355Z,6948.00
2019-05-20T06:50:29.822Z,7172.00
2019-05-20T06:51:29.253Z,7532.00
2019-05-20T06:52:35.833Z,8228.00
2019-05-20T06:53:30.304Z,9296.00
2019-05-20T06:54:29.242Z,11164.00
2019-05-20T06:55:29.227Z,14996.00
2019-05-20T06:56:29.303Z,14680.00
2019-05-20T06:57:29.178Z,15284.00
2019-05-20T06:58:29.228Z,15564.00
2019-05-20T06:59:29.170Z,14912.00
2019-05-20T07:00:29.259Z,13556.00
2019-05-20T07:01:29.142Z,12584.00
2019-05-20T07:02:29.201Z,12832.00
2019-05-20T07:03:29.116Z,13840.00
2019-05-20T07:04:29.192Z,15084.00
2019-05-20T07:05:29.119Z,16352.00
2019-05-20T07:06:44.687Z,18112.00
2019-05-20T07:07:30.064Z,20224.00
2019-05-20T07:08:29.119Z,19680.00
2019-05-20T07:09:29.066Z,19168.00
2019-05-20T07:10:29.145Z,19424.00
2019-05-20T07:11:29.046Z,19488.00
2019-05-20T07:12:40.577Z,19296.00
2019-05-20T07:13:29.995Z,18560.00
2019-05-20T07:14:29.059Z,17920.00
2019-05-20T07:15:28.967Z,17120.00
2019-05-20T07:16:29.057Z,16704.00
2019-05-20T07:17:28.958Z,16832.00
2019-05-20T07:18:28.939Z,17408.00
2019-05-20T07:19:30.030Z,17248.00
2019-05-20T07:20:28.919Z,17376.00
2019-05-20T07:21:29.003Z,17248.00
2019-05-20T07:22:28.902Z,16896.00
2019-05-20T07:23:28.891Z,16384.00
2019-05-20T07:24:28.923Z,15956.00
2019-05-20T07:25:29.265Z,15984.00
2019-05-20T07:26:28.863Z,16832.00
2019-05-20T07:27:28.909Z,17728.00
2019-05-20T07:28:28.843Z,18464.00
2019-05-20T07:29:28.892Z,19040.00
2019-05-20T07:30:28.825Z,19104.00
2019-05-20T07:31:28.869Z,18784.00
2019-05-20T07:32:28.787Z,18304.00
2019-05-20T07:33:28.817Z,17344.00
2019-05-20T07:34:28.806Z,15884.00
2019-05-20T07:35:31.146Z,14624.00
2019-05-20T07:36:28.735Z,13512.00
2019-05-20T07:37:28.797Z,12688.00
2019-05-20T07:38:28.774Z,12096.00
2019-05-20T07:39:28.733Z,11828.00
2019-05-20T07:40:28.791Z,12124.00
2019-05-20T07:41:28.672Z,12404.00
2019-05-20T07:42:28.722Z,12532.00
2019-05-20T07:43:28.663Z,12732.00
2019-05-20T07:44:28.706Z,12916.00
2019-05-20T07:45:28.645Z,13132.00
2019-05-20T07:46:28.695Z,13448.00
2019-05-20T07:47:28.627Z,13876.00
2019-05-20T07:48:28.631Z,14256.00
2019-05-20T07:49:28.607Z,14592.00
2019-05-20T07:50:28.577Z,15000.00
2019-05-20T07:51:28.641Z,15308.00
2019-05-20T07:52:28.560Z,15664.00
2019-05-20T07:53:28.802Z,16096.00
2019-05-20T07:54:28.560Z,16256.00
2019-05-20T07:55:28.535Z,16224.00
2019-05-20T07:56:28.572Z,16064.00
2019-05-20T07:57:28.504Z,15728.00
2019-05-20T07:58:28.527Z,15496.00
2019-05-20T07:59:28.492Z,15584.00
2019-05-20T08:00:28.474Z,16000.00
2019-05-20T08:01:28.486Z,16608.00
2019-05-20T08:02:28.475Z,17120.00
2019-05-20T08:03:28.435Z,17184.00
2019-05-20T08:04:28.473Z,16832.00
2019-05-20T08:05:28.428Z,16512.00
2019-05-20T08:06:28.397Z,16352.00
2019-05-20T08:07:49.878Z,16096.00
2019-05-20T08:08:29.388Z,15588.00
2019-05-20T08:09:28.380Z,15192.00
2019-05-20T08:10:28.435Z,14916.00
2019-05-20T08:11:28.400Z,14988.00
2019-05-20T08:12:28.339Z,15264.00
2019-05-20T08:13:28.430Z,15464.00
2019-05-20T08:14:28.323Z,15408.00
2019-05-20T08:15:28.374Z,15176.00
2019-05-20T08:16:28.285Z,15028.00
2019-05-20T08:17:28.307Z,15164.00
2019-05-20T08:18:28.264Z,15728.00
2019-05-20T08:19:28.295Z,16704.00
2019-05-20T08:20:28.255Z,17696.00
2019-05-20T08:21:28.270Z,19008.00
2019-05-20T08:22:28.226Z,20224.00
2019-05-20T08:23:28.309Z,21280.00
2019-05-20T08:24:28.213Z,22176.00
2019-05-20T08:25:28.252Z,22240.00
2019-05-20T08:26:28.201Z,22720.00
2019-05-20T08:27:28.159Z,24480.00
2019-05-20T08:28:28.151Z,26048.00
2019-05-20T08:29:28.276Z,23232.00
2019-05-20T08:30:28.130Z,22656.00
2019-05-20T08:31:28.161Z,17376.00
2019-05-20T08:32:28.147Z,18016.00
2019-05-20T08:33:28.203Z,18368.00
2019-05-20T08:34:28.092Z,17536.00
2019-05-20T08:35:28.135Z,18080.00
2019-05-20T08:36:28.087Z,17920.00
2019-05-20T08:37:44.321Z,18176.00
2019-05-20T08:38:29.060Z,17760.00
2019-05-20T08:39:28.049Z,17440.00
2019-05-20T08:40:28.128Z,16320.00
2019-05-20T08:41:28.042Z,14892.00
2019-05-20T08:42:28.043Z,13916.00
2019-05-20T08:43:27.988Z,13312.00
2019-05-20T08:44:28.045Z,12680.00
2019-05-20T08:45:27.975Z,13252.00
2019-05-20T08:46:27.984Z,14308.00
2019-05-20T08:47:27.934Z,14416.00
2019-05-20T08:48:28.018Z,14308.00
2019-05-20T08:49:27.930Z,14240.00
2019-05-20T08:50:28.002Z,14076.00
2019-05-20T08:51:27.883Z,14596.00
2019-05-20T08:52:27.994Z,15052.00
2019-05-20T08:53:27.892Z,15784.00
2019-05-20T08:54:27.855Z,16512.00
2019-05-20T08:55:27.877Z,17376.00
2019-05-20T08:56:27.866Z,18400.00
2019-05-20T08:57:27.837Z,19840.00
2019-05-20T08:58:27.900Z,22624.00
2019-05-20T08:59:27.824Z,24000.00
2019-05-20T09:00:27.878Z,21792.00
2019-05-20T09:01:27.920Z,20288.00
2019-05-20T09:02:27.775Z,18752.00
2019-05-20T09:03:30.308Z,17440.00
2019-05-20T09:04:27.755Z,16608.00
2019-05-20T09:05:28.558Z,16256.00
2019-05-20T09:06:27.722Z,16160.00
2019-05-20T09:07:28.746Z,15832.00
2019-05-20T09:08:27.704Z,15412.00
2019-05-20T09:09:27.936Z,14964.00
2019-05-20T09:10:27.705Z,13632.00
2019-05-20T09:11:27.693Z,13304.00
2019-05-20T09:12:27.662Z,14008.00
2019-05-20T09:13:27.733Z,14148.00
2019-05-20T09:14:27.774Z,14696.00
2019-05-20T09:15:28.074Z,16032.00
2019-05-20T09:16:27.727Z,16448.00
2019-05-20T09:17:27.617Z,17568.00
2019-05-20T09:18:27.689Z,18976.00
2019-05-20T09:19:27.569Z,19680.00
2019-05-20T09:20:27.651Z,19808.00
2019-05-20T09:21:27.561Z,18912.00
2019-05-20T09:22:27.666Z,18880.00
2019-05-20T09:23:27.537Z,18688.00
2019-05-20T09:24:27.575Z,18528.00
2019-05-20T09:25:27.537Z,18304.00
2019-05-20T09:26:27.497Z,18240.00
2019-05-20T09:27:27.485Z,17952.00
2019-05-20T09:28:27.540Z,17792.00
2019-05-20T09:29:27.467Z,19072.00
2019-05-20T09:30:27.527Z,19808.00
2019-05-20T09:31:27.455Z,20736.00
2019-05-20T09:32:27.460Z,22144.00
2019-05-20T09:33:27.419Z,23104.00
2019-05-20T09:34:27.453Z,23232.00
2019-05-20T09:35:27.420Z,23168.00
2019-05-20T09:36:27.494Z,23296.00
2019-05-20T09:37:27.369Z,23840.00
2019-05-20T09:38:27.384Z,25440.00
2019-05-20T09:39:27.403Z,24448.00
2019-05-20T09:40:27.353Z,25088.00
2019-05-20T09:41:27.424Z,26560.00
2019-05-20T09:42:27.335Z,27392.00
2019-05-20T09:43:27.307Z,28448.00
2019-05-20T09:44:27.306Z,32192.00
2019-05-20T09:45:27.416Z,29760.00
2019-05-20T09:46:27.298Z,28096.00
2019-05-20T09:47:27.348Z,29600.00
2019-05-20T09:48:27.258Z,35744.00
2019-05-20T09:49:27.361Z,36544.00
2019-05-20T09:50:27.228Z,35424.00
2019-05-20T09:51:27.244Z,35776.00
2019-05-20T09:52:27.210Z,37984.00
2019-05-20T09:53:27.257Z,36384.00
2019-05-20T09:54:27.241Z,43968.00
2019-05-20T09:55:27.203Z,36480.00
2019-05-20T09:56:28.227Z,38432.00
2019-05-20T09:57:27.142Z,37440.00
2019-05-20T09:58:27.349Z,42688.00
2019-05-20T09:59:42.018Z,36608.00
2019-05-20T10:00:28.125Z,36128.00
2019-05-20T10:01:27.235Z,31680.00
2019-05-20T10:02:35.366Z,30528.00
2019-05-20T10:03:28.091Z,31264.00
2019-05-20T10:04:27.068Z,32736.00
2019-05-20T10:05:27.052Z,32928.00
2019-05-20T10:06:27.194Z,32960.00
2019-05-20T10:07:27.040Z,32992.00
2019-05-20T10:08:37.914Z,31808.00
2019-05-20T10:09:28.042Z,31936.00
2019-05-20T10:10:27.014Z,30464.00
2019-05-20T10:11:27.112Z,29856.00
2019-05-20T10:12:44.627Z,29536.00
2019-05-20T10:13:27.973Z,24640.00
2019-05-20T10:14:27.004Z,22656.00
2019-05-20T10:15:26.943Z,22272.00
2019-05-20T10:16:26.956Z,24160.00
2019-05-20T10:17:26.986Z,24672.00
2019-05-20T10:18:36.592Z,24064.00
2019-05-20T10:19:27.895Z,24768.00
2019-05-20T10:20:26.897Z,25600.00
2019-05-20T10:21:26.907Z,26464.00
2019-05-20T10:22:26.919Z,25792.00
2019-05-20T10:23:26.871Z,25600.00
2019-05-20T10:24:26.959Z,22912.00
2019-05-20T10:25:26.831Z,19392.00
2019-05-20T10:26:26.862Z,15532.00
2019-05-20T10:27:26.872Z,18144.00
2019-05-20T10:28:26.802Z,22816.00
2019-05-20T10:29:26.902Z,24000.00
2019-05-20T10:30:26.784Z,24352.00
2019-05-20T10:31:26.793Z,21376.00
2019-05-20T10:32:26.756Z,20096.00
2019-05-20T10:33:26.778Z,20032.00
2019-05-20T10:34:26.736Z,20192.00
2019-05-20T10:35:26.816Z,19584.00
2019-05-20T10:36:26.816Z,22368.00
2019-05-20T10:37:26.708Z,27232.00
2019-05-20T10:38:26.854Z,27232.00
2019-05-20T10:39:26.679Z,21600.00
2019-05-20T10:40:27.790Z,19168.00
2019-05-20T10:41:29.460Z,17568.00
2019-05-20T10:42:26.661Z,15200.00
2019-05-20T10:43:26.652Z,14400.00
2019-05-20T10:44:26.633Z,17664.00
2019-05-20T10:45:26.682Z,16416.00
2019-05-20T10:46:26.593Z,16448.00
2019-05-20T10:47:26.614Z,20896.00
2019-05-20T10:48:26.595Z,18784.00
2019-05-20T10:49:26.566Z,23072.00
2019-05-20T10:50:26.638Z,24992.00
2019-05-20T10:51:26.535Z,23488.00
2019-05-20T10:52:26.580Z,23648.00
2019-05-20T10:53:28.474Z,22432.00
2019-05-20T10:54:27.628Z,21056.00
2019-05-20T10:55:26.498Z,20448.00
2019-05-20T10:56:27.570Z,21568.00
2019-05-20T10:57:26.496Z,19680.00
2019-05-20T10:58:26.472Z,19232.00
2019-05-20T10:59:26.541Z,17920.00
2019-05-20T11:00:26.446Z,15344.00
2019-05-20T11:01:26.482Z,13808.00
2019-05-20T11:02:31.002Z,15428.00
2019-05-20T11:03:26.404Z,19872.00
2019-05-20T11:04:26.405Z,21952.00
2019-05-20T11:05:26.455Z,23200.00
2019-05-20T11:06:26.382Z,22784.00
2019-05-20T11:07:26.436Z,19296.00
2019-05-20T11:08:26.457Z,17152.00
2019-05-20T11:09:26.337Z,13948.00
2019-05-20T11:10:26.389Z,10440.00
2019-05-20T11:11:26.339Z,7012.00
2019-05-20T11:12:26.369Z,5044.00
2019-05-20T11:13:26.290Z,3668.00
2019-05-20T11:14:26.281Z,3628.00
2019-05-20T11:15:26.348Z,5608.00
2019-05-20T11:16:26.280Z,8564.00
2019-05-20T11:17:26.313Z,10204.00
2019-05-20T11:18:26.243Z,11612.00
2019-05-20T11:19:26.237Z,12452.00
2019-05-20T11:20:26.226Z,11908.00
2019-05-20T11:21:26.234Z,11600.00
2019-05-20T11:22:26.217Z,14960.00
2019-05-20T11:23:26.277Z,16192.00
2019-05-20T11:24:26.178Z,17184.00
2019-05-20T11:25:26.174Z,16704.00
2019-05-20T11:26:26.180Z,15916.00
2019-05-20T11:27:26.148Z,15664.00
2019-05-20T11:28:26.219Z,15188.00
2019-05-20T11:29:26.121Z,14956.00
2019-05-20T11:30:26.100Z,14864.00
2019-05-20T11:31:26.121Z,14548.00
2019-05-20T11:32:26.103Z,14420.00
2019-05-20T11:33:26.152Z,13160.00
2019-05-20T11:34:26.043Z,11616.00
2019-05-20T11:35:26.104Z,11136.00
2019-05-20T11:36:26.053Z,9120.00
2019-05-20T11:37:26.076Z,5136.00
2019-05-20T11:38:26.025Z,4144.00
2019-05-20T11:39:33.418Z,4808.00
2019-05-20T11:40:26.986Z,5312.00
2019-05-20T11:41:52.135Z,5720.00
2019-05-20T11:42:26.988Z,8308.00
2019-05-20T11:43:26.051Z,13192.00
2019-05-20T11:44:25.950Z,14900.00
2019-05-20T11:45:25.983Z,13752.00
2019-05-20T11:46:25.931Z,13012.00
2019-05-20T11:47:25.961Z,15428.00
2019-05-20T11:48:25.902Z,17888.00
2019-05-20T11:49:28.960Z,18144.00
2019-05-20T11:50:25.874Z,18848.00
2019-05-20T11:51:25.893Z,19136.00
2019-05-20T11:52:25.874Z,18752.00
2019-05-20T11:53:25.936Z,18784.00
2019-05-20T11:54:25.869Z,19136.00
2019-05-20T11:55:25.868Z,19392.00
2019-05-20T11:56:25.817Z,18272.00
2019-05-20T11:57:25.882Z,16448.00
2019-05-20T11:58:25.788Z,15060.00
2019-05-20T11:59:25.837Z,14192.00
2019-05-20T12:00:25.769Z,14408.00
2019-05-20T12:01:25.770Z,16128.00
2019-05-20T12:02:25.741Z,17952.00
2019-05-20T12:03:25.741Z,17920.00
2019-05-20T12:04:25.772Z,16960.00
2019-05-20T12:05:25.712Z,15508.00
2019-05-20T12:06:25.815Z,15452.00
2019-05-20T12:07:25.684Z,15212.00
2019-05-20T12:08:25.698Z,16256.00
2019-05-20T12:09:25.667Z,17024.00
2019-05-20T12:10:25.686Z,16040.00
2019-05-20T12:11:25.646Z,14608.00
2019-05-20T12:12:25.726Z,14440.00
2019-05-20T12:13:25.661Z,15296.00
2019-05-20T12:14:26.678Z,16320.00